Latest Coastal Weather Observations for Christmas Island

IDW60701

Issued at 8:43 am WST Friday 20 April 2018 (issued every 10 minutes, with the page automatically refreshed every 10 minutes)

About coastal observations | Map of coastal stations | Coastal observations for WA | Marine services | Other Formats
Station Details ID: 200790 Name: CHRISTMAS ISLAND AERO Lat: -10.45 Lon: 105.69 Height: 261.0 m
Data from the previous 72 hours. | See also: Recent months at Christmas Island
Date/Time
WST
Temp
°C
Wind Pressure Rain since
9am
mm
Weather Cloud Vis
km
Sea
Height
m
Swell
Dir  Spd
kts
Gust
kts
hPa Trend Height
m
Period
s
Dir
20/08:30am 27.0 ESE 10 14 1012.5 - 29.6 - Partly cloudy 10 - - - -
20/08:00am 26.4 ESE 10 14 1012.1 - 29.6 - Partly cloudy 10 - - - -
20/07:30am 26.3 ESE 11 14 1011.5 - 29.6 - Partly cloudy 10 - - - -
20/07:00am 26.2 E 11 15 1009.4 - 29.6 - Partly cloudy 10 - - - -
20/06:30am 26.0 ESE 10 15 1010.8 - 29.6 - Partly cloudy 10 - - - -
20/06:00am 26.2 ESE 9 13 1010.7 - 29.6 - Partly cloudy 10 - - - -
20/05:30am 26.2 ESE 10 18 1010.7 - 29.6 - Partly cloudy 10 - - - -
20/05:00am 26.3 ESE 11 17 1010.8 - 29.6 - Partly cloudy 10 - - - -
20/04:30am 26.4 ESE 10 16 1010.9 - 29.6 - Partly cloudy 10 - - - -
20/04:00am 26.2 ESE 9 15 1009.3 - 29.6 - Cloudy 10 - - - -
20/03:30am 26.4 ESE 10 17 1011.1 - 29.6 - Partly cloudy 10 - - - -
20/03:00am 26.5 ESE 12 17 1011.2 - 29.6 - Partly cloudy 10 - - - -
20/02:30am 26.3 ESE 11 16 1011.4 - 29.6 - Partly cloudy 10 - - - -
20/02:00am 26.4 ESE 12 16 1011.7 - 29.6 - Partly cloudy 10 - - - -
20/01:30am 26.5 SE 10 16 1012.1 - 29.6 - Partly cloudy 10 - - - -
20/01:00am 26.6 ESE 11 16 1010.6 - 29.6 - Cloudy 10 - - - -
20/12:30am 26.3 SE 9 13 1012.3 - 29.6 - Partly cloudy 10 - - - -
20/12:00am 26.5 ESE 11 16 1012.3 - 29.6 - Partly cloudy 10 - - - -
 
Date/Time
WST
Temp
°C
Wind Pressure Rain since
9am
mm
Weather Cloud Vis
km
Sea
Height
m
Swell
Dir  Spd
kts
Gust
kts
hPa Trend Height
m
Period
s
Dir
19/11:30pm 26.5 ESE 11 14 1012.2 - 29.6 - Partly cloudy 10 - - - -
19/11:00pm 26.3 SE 10 15 1012.2 - 29.6 - Partly cloudy 10 - - - -
19/10:30pm 26.4 SE 10 16 1011.9 - 29.6 - Partly cloudy 10 - - - -
19/10:00pm 26.4 SE 10 14 1010.2 - 29.6 - Partly cloudy 10 - - - -
19/09:30pm 26.4 SE 10 14 1011.6 - 29.6 - Partly cloudy 10 - - - -
19/09:00pm 26.5 ESE 11 16 1011.4 - 29.6 - Partly cloudy 10 - - - -
19/08:30pm 26.5 SE 10 13 1011.0 - 29.6 - Partly cloudy 10 - - - -
19/08:00pm 26.6 ESE 10 14 1010.9 - 29.6 - Partly cloudy 10 - - - -
19/07:30pm 26.7 ESE 10 14 1010.5 - 29.6 - Partly cloudy 10 - - - -
19/07:00pm 26.5 ESE 9 12 1008.8 - 29.6 - Partly cloudy 10 - - - -
19/06:30pm 26.8 ESE 9 13 1010.2 - 29.6 - Partly cloudy 10 - - - -
19/06:00pm 27.1 ESE 9 14 1010.1 - 29.6 - Partly cloudy 10 - - - -
19/05:30pm 27.4 ESE 10 14 1009.9 - 29.6 - Partly cloudy 10 - - - -
19/05:00pm 27.8 ESE 9 15 1010.0 - 29.6 - Partly cloudy 10 - - - -
19/04:30pm 28.0 ESE 10 16 1010.1 - 29.6 - Partly cloudy 10 - - - -
19/04:00pm 28.3 ESE 10 15 1008.6 - 29.6 - Mostly cloudy 10 - - - -
19/03:30pm 28.0 ESE 11 15 1010.4 - 29.6 - Partly cloudy 10 - - - -
19/03:00pm 28.3 ESE 10 15 1010.7 - 29.6 - Partly cloudy 10 - - - -
19/02:30pm 28.3 E 10 16 1011.1 - 29.6 - Partly cloudy 10 - - - -
19/02:00pm 28.7 E 12 18 1011.5 - 29.6 - Partly cloudy 10 - - - -
19/01:30pm 28.5 E 10 16 1011.8 - 29.6 - Partly cloudy 10 - - - -
19/01:00pm 28.5 E 11 16 1010.4 - 29.4 - Partly cloudy 10 - - - -
19/12:30pm 28.0 E 9 13 1012.5 - 29.4 - Partly cloudy 10 - - - -
19/12:00pm 26.7 E 9 13 1012.8 - 29.4 - Partly cloudy 10 - - - -
19/11:30am 25.6 E 7 10 1013.1 - 29.4 - Partly cloudy 10 - - - -
19/11:00am 24.0 NE 10 16 1013.5 - 29.4 - Partly cloudy 9 - - - -
19/10:45am 24.4 NE 8 12 1013.5 - 29.0 - Partly cloudy 10 - - - -
19/10:38am 24.0 NNE 9 14 1013.5 - 29.0 - Partly cloudy 9 - - - -
19/10:30am 23.1 NNE 11 21 1013.8 - 28.8 - Partly cloudy 3 - - - -
19/10:01am 24.8 ESE 11 19 1014.0 - 1.0 - Partly cloudy 4 - - - -
19/10:00am 24.9 ESE 11 19 1012.2 - 3.0 - Cloudy 4 - - - -
19/09:56am 25.1 ESE 9 17 1013.6 - 2.2 - Partly cloudy 5 - - - -
19/09:30am 25.1 SE 6 10 1013.5 - 0.2 - Partly cloudy 10 - - - -
19/09:10am 24.2 E 9 19 1013.4 - 0.2 - Partly cloudy 10 - - - -
19/09:00am 24.4 E 12 21 1013.5 - 0.2 - Partly cloudy 10 - - - -
19/08:30am 26.0 SE 7 12 1012.9 - 0.2 - Partly cloudy 10 - - - -
19/08:10am 26.1 SE 10 15 1012.9 - 0.2 - Partly cloudy 10 - - - -
19/08:00am 25.5 SE 7 11 1012.7 - 0.2 - Partly cloudy 10 - - - -
19/07:44am 25.0 SE 10 16 1012.7 - 0.2 - Partly cloudy 10 - - - -
19/07:30am 25.9 ESE 12 18 1012.5 - 0.2 - Partly cloudy 10 - - - -
19/07:00am 26.0 SE 7 10 1010.3 - 0.2 - Cloudy 10 - - - -
19/06:32am 25.9 SE 7 11 1011.8 - 0.2 - Partly cloudy 10 - - - -
19/06:30am 25.8 SE 7 11 1011.9 - 0.2 - Partly cloudy 10 - - - -
19/06:15am 25.8 SE 7 11 1011.8 - 0.2 - Partly cloudy 10 - - - -
19/06:00am 26.3 ESE 10 14 1011.9 - 0.2 - Partly cloudy 10 - - - -
19/05:48am 26.5 ESE 9 15 1011.8 - 0.2 - Partly cloudy 10 - - - -
19/05:43am 26.4 ESE 9 13 1011.7 - 0.2 - Partly cloudy 10 - - - -
19/05:30am 26.4 ESE 10 15 1011.6 - 0.2 - Partly cloudy 10 - - - -
19/05:00am 26.4 ESE 9 13 1011.6 - 0.2 - Partly cloudy 10 - - - -
19/04:30am 26.4 ESE 9 14 1011.5 - 0.2 - Partly cloudy 10 - - - -
19/04:00am 26.4 ESE 9 15 1010.2 - 0.2 - Mostly cloudy 10 - - - -
19/03:30am 26.3 ESE 10 14 1011.9 - 0.2 - Partly cloudy 10 - - - -
19/03:00am 26.4 ESE 9 12 1012.2 - 0.2 - Partly cloudy 10 - - - -
19/02:59am 26.4 ESE 8 12 1012.2 - 0.2 - Partly cloudy 10 - - - -
19/02:55am 26.3 ESE 8 11 1012.2 - 0.2 - Partly cloudy 10 - - - -
19/02:30am 26.5 ESE 9 13 1012.5 - 0.2 - Partly cloudy 10 - - - -
19/02:00am 26.6 E 8 11 1012.8 - 0.2 - Partly cloudy 10 - - - -
19/01:56am 26.6 E 8 13 1012.8 - 0.2 - Partly cloudy 10 - - - -
19/01:47am 26.6 E 9 13 1012.8 - 0.2 - Partly cloudy 10 - - - -
19/01:30am 26.7 E 8 12 1012.8 - 0.2 - Partly cloudy 10 - - - -
19/01:00am 26.6 E 8 11 1011.4 - 0.2 - Partly cloudy 10 - - - -
19/12:30am 26.7 E 8 11 1013.2 - 0.2 - Partly cloudy 10 - - - -
19/12:00am 26.9 E 9 15 1013.1 - 0.2 - Partly cloudy 10 - - - -
 
Date/Time
WST
Temp
°C
Wind Pressure Rain since
9am
mm
Weather Cloud Vis
km
Sea
Height
m
Swell
Dir  Spd
kts
Gust
kts
hPa Trend Height
m
Period
s
Dir
18/11:30pm 26.8 E 8 12 1013.0 - 0.2 - Partly cloudy 10 - - - -
18/11:00pm 26.7 ESE 8 13 1013.0 - 0.2 - Partly cloudy 10 - - - -
18/10:49pm 26.7 ESE 8 12 1013.1 - 0.2 - Partly cloudy 10 - - - -
18/10:32pm 26.7 E 8 12 1013.2 - 0.2 - Partly cloudy 10 - - - -
18/10:30pm 26.8 E 9 12 1013.2 - 0.2 - Partly cloudy 10 - - - -
18/10:00pm 26.7 E 9 12 1011.6 - 0.2 - Cloudy 10 - - - -
18/09:51pm 26.6 E 8 13 1013.3 - 0.2 - Partly cloudy 10 - - - -
18/09:30pm 26.4 ESE 8 12 1013.2 - 0.2 - Partly cloudy 10 - - - -
18/09:00pm 26.7 E 8 13 1013.0 - 0.2 - Partly cloudy 10 - - - -
18/08:30pm 26.6 E 8 13 1012.7 - 0.2 - Partly cloudy 10 - - - -
18/08:00pm 26.6 E 8 13 1012.5 - 0.2 - Partly cloudy 10 - - - -
18/07:30pm 26.5 E 8 11 1012.2 - 0.2 - - 10 - - - -
18/07:00pm 26.8 E 8 13 1010.4 - 0.2 - - 10 - - - -
18/06:30pm 26.9 E 8 11 1011.7 - 0.2 - Partly cloudy 10 - - - -
18/06:00pm 27.1 E 8 11 1011.4 - 0.2 - Partly cloudy 10 - - - -
18/05:30pm 28.0 E 8 11 1011.4 - 0.2 - - 10 - - - -
18/05:00pm 28.2 E 9 12 1011.0 - 0.2 - Partly cloudy 10 - - - -
18/04:35pm 28.3 E 9 13 1011.1 - 0.2 - Partly cloudy 10 - - - -
18/04:30pm 28.3 E 9 13 1011.2 - 0.2 - Partly cloudy 10 - - - -
18/04:00pm 27.8 E 10 17 1010.0 - 0.2 - Cloudy 10 - - - -
18/03:30pm 28.1 E 9 13 1011.9 - 0.2 - Partly cloudy 10 - - - -
18/03:12pm 27.8 E 10 13 1011.8 - 0.2 - Partly cloudy 10 - - - -
18/03:00pm 27.6 E 10 16 1011.7 - 0.2 - Partly cloudy 10 - - - -
18/02:30pm 27.9 E 10 13 1012.2 - 0.2 - Partly cloudy 10 - - - -
18/02:00pm 29.0 E 12 17 1012.6 - 0.2 - - 10 - - - -
18/01:40pm 29.1 E 11 19 1012.9 - 0.2 - Partly cloudy 10 - - - -
18/01:30pm 29.1 E 12 17 1013.0 - 0.2 - Partly cloudy 10 - - - -
18/01:23pm 29.1 E 12 18 1013.1 - 0.2 - Partly cloudy 10 - - - -
18/01:00pm 28.7 E 14 20 1011.7 - 0.2 - Cloudy 10 - - - -
18/12:30pm 28.6 E 11 16 1013.6 - 0.2 - Partly cloudy 10 - - - -
18/12:04pm 28.3 E 12 18 - - 0.2 - Partly cloudy 10 - - - -
18/12:00pm 28.1 E 12 16 1013.9 - 0.2 - Partly cloudy 10 - - - -
18/11:30am 28.2 ESE 10 14 1013.9 - 0.2 - Partly cloudy 10 - - - -
18/11:00am 27.9 ESE 12 16 1014.3 - 0.2 - Cloudy 10 - - - -
18/10:40am 27.9 ESE 11 17 1014.4 - 0.2 - Partly cloudy 10 - - - -
18/10:30am 28.1 ESE 10 14 1014.5 - 0.2 - Partly cloudy 10 - - - -
18/10:00am 27.9 ESE 9 14 1012.8 - 1.8 - Cloudy 10 - - - -
18/09:53am 27.5 ESE 10 15 1014.4 - 1.8 - Partly cloudy 10 - - - -
18/09:30am 27.2 ESE 10 16 1014.1 - 1.8 - Cloudy 10 - - - -
18/09:19am 26.8 ESE 11 16 1013.9 - 1.8 - Partly cloudy 10 - - - -
18/09:00am 26.6 SE 8 12 1013.9 - 1.8 - Partly cloudy 10 - - - -
18/08:51am 26.8 SE 8 12 1013.7 - 1.8 - Partly cloudy 10 - - - -
18/08:32am 25.6 SE 4 8 1013.7 - 1.8 - Partly cloudy 10 - - - -
18/08:30am 25.5 SE 5 9 1013.7 - 1.8 - Partly cloudy 10 - - - -
18/08:00am 25.0 SE 5 8 1013.5 - 1.8 - Partly cloudy 10 - - - -
18/07:30am 24.3 SE 5 7 1013.3 - 1.8 - Partly cloudy 10 - - - -
18/07:00am 24.0 SE 6 10 1011.2 - 1.8 - Mostly cloudy 10 - - - -
18/06:30am 24.6 ESE 11 17 1013.2 - 1.8 - Partly cloudy 10 - - - -
18/06:00am 24.7 ESE 5 8 1012.5 - 1.8 - Partly cloudy 10 - - - -
18/05:36am 24.7 ESE 7 10 1012.5 - 1.8 - Partly cloudy 10 - - - -
18/05:30am 24.6 ESE 9 13 1012.5 - 1.8 - Partly cloudy 10 - - - -
18/05:06am 25.4 SE 9 14 1012.6 - 1.4 - Partly cloudy 10 - - - -
18/05:00am 25.5 SE 10 14 1012.6 - 1.4 - Partly cloudy 10 - - - -
18/04:46am 26.2 ESE 6 9 1012.4 - 0.8 - Partly cloudy 4 - - - -
18/04:30am 26.1 SE 7 10 1012.6 - 0.0 - Partly cloudy 10 - - - -
18/04:00am 26.0 ESE 6 9 1010.9 - 0.0 - Mostly cloudy 10 - - - -
18/03:30am 26.1 ESE 6 8 1012.8 - 0.0 - Partly cloudy 10 - - - -
18/03:00am 26.2 ESE 7 9 1013.0 - 0.0 - Partly cloudy 10 - - - -
18/02:30am 26.3 ESE 7 11 1013.2 - 0.0 - Partly cloudy 10 - - - -
18/02:00am 26.1 ESE 7 10 1013.3 - 0.0 - Partly cloudy 10 - - - -
18/01:30am 26.0 ESE 6 9 1013.7 - 0.0 - Partly cloudy 10 - - - -
18/01:00am 25.9 ESE 6 8 1012.1 - 0.0 - Cloudy 10 - - - -
18/12:38am 25.9 ESE 6 8 1013.8 - 0.0 - Partly cloudy 10 - - - -
18/12:30am 25.9 ESE 6 10 1013.8 - 0.0 - Partly cloudy 10 - - - -
18/12:00am 25.9 E 6 8 1013.7 - 0.0 - - 10 - - - -
 
Date/Time
WST
Temp
°C
Wind Pressure Rain since
9am
mm
Weather Cloud Vis
km
Sea
Height
m
Swell
Dir  Spd
kts
Gust
kts
hPa Trend Height
m
Period
s
Dir
17/11:30pm 26.2 ESE 7 10 1013.9 - 0.0 - Partly cloudy 10 - - - -
17/11:17pm 26.2 E 8 11 1013.9 - 0.0 - Partly cloudy 10 - - - -
17/11:00pm 26.2 ESE 8 13 1014.0 - 0.0 - Partly cloudy 10 - - - -
17/10:30pm 26.4 E 8 11 1014.0 - 0.0 - Partly cloudy 10 - - - -
17/10:00pm 26.4 E 7 11 1012.3 - 0.0 - - 10 - - - -
17/09:36pm 26.4 E 6 9 1013.8 - 0.0 - Partly cloudy 10 - - - -
17/09:30pm 26.5 E 7 9 1013.7 - 0.0 - Partly cloudy 10 - - - -
17/09:11pm 26.8 E 7 11 1013.7 - 0.0 - Partly cloudy 10 - - - -
17/09:00pm 26.7 E 7 9 1013.5 - 0.0 - Partly cloudy 10 - - - -
17/08:30pm 26.7 E 7 11 1013.2 - 0.0 - Partly cloudy 10 - - - -
17/08:00pm 26.8 E 8 11 1012.8 - 0.0 - Partly cloudy 10 - - - -
17/07:30pm 26.7 E 6 9 1012.7 - 0.0 - Partly cloudy 10 - - - -
17/07:00pm 26.6 E 7 9 1010.5 - 0.0 - Mostly clear 10 - - - -
17/06:30pm 27.2 E 7 9 1012.2 - 0.0 - Partly cloudy 10 - - - -
17/06:18pm 27.4 E 7 10 1012.2 - 0.0 - Partly cloudy 10 - - - -
17/06:00pm 27.8 E 7 9 1012.2 - 0.0 - Partly cloudy 10 - - - -
17/05:30pm 27.6 E 8 11 1012.1 - 0.0 - Partly cloudy 10 - - - -
17/05:00pm 28.2 E 9 12 1012.2 - 0.0 - Partly cloudy 10 - - - -
17/04:30pm 28.6 E 9 12 1012.1 - 0.0 - Partly cloudy 10 - - - -
17/04:00pm 28.1 E 9 12 1010.3 - 0.0 - Mostly cloudy 10 - - - -
17/03:30pm 28.9 E 9 13 1012.2 - 0.0 - Partly cloudy 10 - - - -
17/03:00pm 29.1 E 9 12 1012.6 - 0.0 - Partly cloudy 10 - - - -
17/02:30pm 29.0 E 10 13 1012.8 - 0.0 - Partly cloudy 10 - - - -
17/02:00pm 29.0 E 10 13 1013.1 - 0.0 - Partly cloudy 10 - - - -
17/01:30pm 28.7 E 9 14 1013.4 - 0.0 - Partly cloudy 10 - - - -
17/01:00pm 29.1 E 10 13 1012.1 - 0.0 - Mostly clear 10 - - - -
17/12:30pm 28.7 E 10 13 1014.0 - 0.0 - Partly cloudy 10 - - - -
17/12:00pm 29.0 ESE 10 13 1014.2 - 0.0 - Partly cloudy 10 - - - -
17/11:30am 28.6 ESE 9 13 1014.4 - 0.0 - Partly cloudy 10 - - - -
17/11:00am 28.0 ESE 10 17 1014.7 - 0.0 - Partly cloudy 10 - - - -
17/10:30am 28.5 ESE 10 17 1014.7 - 0.0 - Partly cloudy 10 - - - -
17/10:00am 27.6 ESE 9 13 1012.9 - 0.0 - Partly cloudy 10 - - - -

Other Formats:

Comma delimited format used in spreadsheet applications
http://www.bom.gov.au/fwo/IDW60701/IDW60701.96995.axf

JavaScript Object Notation format (JSON) in row-major order
http://www.bom.gov.au/fwo/IDW60701/IDW60701.96995.json